createdAt,value
2018-05-13T00:00:10.743Z,95229.92
2018-05-13T00:02:38.281Z,95237.98
2018-05-13T00:05:05.867Z,95225.56
2018-05-13T00:07:33.439Z,95230.75
2018-05-13T00:10:00.987Z,95239.73
2018-05-13T00:12:28.515Z,95236.42
2018-05-13T00:14:56.047Z,95243.47
2018-05-13T00:17:23.621Z,95236.47
2018-05-13T00:19:51.174Z,95242.09
2018-05-13T00:22:18.706Z,95231.64
2018-05-13T00:24:46.271Z,95246.29
2018-05-13T00:27:13.836Z,95244.19
2018-05-13T00:29:41.376Z,95231.34
2018-05-13T00:32:08.919Z,95243.92
2018-05-13T00:34:36.467Z,95236.39
2018-05-13T00:37:04.010Z,95234.21
2018-05-13T00:39:31.537Z,95236.92
2018-05-13T00:41:59.079Z,95237.20
2018-05-13T00:44:26.661Z,95227.77
2018-05-13T00:46:54.195Z,95238.91
2018-05-13T00:49:21.756Z,95231.78
2018-05-13T00:51:49.298Z,95238.68
2018-05-13T00:54:28.488Z,95245.69
2018-05-13T00:56:56.028Z,95247.02
2018-05-13T00:59:23.553Z,95242.92
2018-05-13T01:01:51.110Z,95243.44
2018-05-13T01:04:18.645Z,95238.89
2018-05-13T01:06:46.187Z,95237.13
2018-05-13T01:09:13.718Z,95237.77
2018-05-13T01:11:41.259Z,95236.53
2018-05-13T01:14:08.815Z,95226.11
2018-05-13T01:16:36.391Z,95233.41
2018-05-13T01:19:03.930Z,95240.41
2018-05-13T01:21:31.499Z,95222.77
2018-05-13T01:23:59.039Z,95235.63
2018-05-13T01:26:26.597Z,95229.38
2018-05-13T01:28:54.128Z,95227.04
2018-05-13T01:31:21.679Z,95230.06
2018-05-13T01:33:49.211Z,95238.06
2018-05-13T01:36:16.787Z,95228.95
2018-05-13T01:38:44.332Z,95218.06
2018-05-13T01:41:11.886Z,95216.51
2018-05-13T01:43:39.422Z,95230.59
2018-05-13T01:46:06.987Z,95236.64
2018-05-13T01:48:34.564Z,95231.16
2018-05-13T01:51:02.095Z,95230.47
2018-05-13T01:53:29.666Z,95226.14
2018-05-13T01:55:57.206Z,95222.41
2018-05-13T01:58:24.770Z,95222.41
2018-05-13T02:00:52.346Z,95228.41
2018-05-13T02:03:19.885Z,95227.05
2018-05-13T02:05:47.459Z,95230.44
2018-05-13T02:08:15.008Z,95221.91
2018-05-13T02:10:42.600Z,95222.56
2018-05-13T02:13:10.125Z,95225.98
2018-05-13T02:15:37.660Z,95224.86
2018-05-13T02:18:05.192Z,95211.33
2018-05-13T02:20:32.754Z,95223.53
2018-05-13T02:23:00.336Z,95218.10
2018-05-13T02:25:27.851Z,95220.11
2018-05-13T02:27:55.403Z,95222.06
2018-05-13T02:30:22.956Z,95219.05
2018-05-13T02:32:50.452Z,95205.45
2018-05-13T02:35:18.013Z,95218.19
2018-05-13T02:37:45.583Z,95216.49
2018-05-13T02:40:13.091Z,95218.91
2018-05-13T02:42:40.591Z,95222.07
2018-05-13T02:45:08.114Z,95226.23
2018-05-13T02:47:35.619Z,95228.30
2018-05-13T02:50:03.185Z,95219.58
2018-05-13T02:52:30.696Z,95220.31
2018-05-13T02:54:58.246Z,95219.98
2018-05-13T02:57:25.795Z,95215.42
2018-05-13T02:59:53.315Z,95205.34
2018-05-13T03:02:20.833Z,95205.78
2018-05-13T03:04:48.344Z,95207.91
2018-05-13T03:07:15.853Z,95207.23
2018-05-13T03:09:43.377Z,95194.88
2018-05-13T03:12:10.915Z,95195.05
2018-05-13T03:14:38.422Z,95212.29
2018-05-13T03:17:05.936Z,95206.52
2018-05-13T03:19:33.457Z,95205.34
2018-05-13T03:22:00.969Z,95201.69
2018-05-13T03:24:28.490Z,95204.38
2018-05-13T03:26:56.001Z,95196.41
2018-05-13T03:29:23.511Z,95198.29
2018-05-13T03:31:51.016Z,95206.41
2018-05-13T03:34:18.543Z,95147.12
2018-05-13T03:36:46.102Z,95202.86
2018-05-13T03:39:13.621Z,95198.32
2018-05-13T03:41:41.125Z,95193.36
2018-05-13T03:44:08.644Z,95207.78
2018-05-13T03:46:36.201Z,95215.90
2018-05-13T03:49:03.703Z,95209.29
2018-05-13T03:51:31.233Z,95208.58
2018-05-13T03:53:58.741Z,95202.58
2018-05-13T03:56:26.253Z,95203.93
2018-05-13T03:58:53.782Z,95197.84
2018-05-13T04:01:21.283Z,95198.30
2018-05-13T04:03:48.791Z,95198.86
2018-05-13T04:06:16.314Z,95198.17
2018-05-13T04:08:55.515Z,95205.16
2018-05-13T04:11:34.807Z,95198.80
2018-05-13T04:14:14.238Z,95205.02
2018-05-13T04:16:41.751Z,95201.92
2018-05-13T04:19:09.333Z,95202.52
2018-05-13T04:21:36.866Z,95209.93
2018-05-13T04:24:04.442Z,95204.10
2018-05-13T04:26:31.992Z,95205.00
2018-05-13T04:29:00.376Z,95208.75
2018-05-13T04:31:27.892Z,95201.39
2018-05-13T04:33:55.395Z,95207.13
2018-05-13T04:36:22.928Z,95204.36
2018-05-13T04:38:50.439Z,95208.28
2018-05-13T04:41:17.987Z,95209.55
2018-05-13T04:43:45.497Z,95217.75
2018-05-13T04:46:13.642Z,95211.95
2018-05-13T04:48:41.170Z,95197.22
2018-05-13T04:51:08.693Z,95203.36
2018-05-13T04:53:36.222Z,95201.73
2018-05-13T04:56:03.747Z,95193.70
2018-05-13T04:58:31.311Z,95210.34
2018-05-13T05:00:58.858Z,95194.83
2018-05-13T05:03:26.372Z,95189.46
2018-05-13T05:05:53.943Z,95203.02
2018-05-13T05:08:21.464Z,95198.72
2018-05-13T05:10:48.988Z,95191.00
2018-05-13T05:13:16.595Z,95193.38
2018-05-13T05:15:44.480Z,95203.36
2018-05-13T05:18:11.993Z,95203.88
2018-05-13T05:20:39.540Z,95206.09
2018-05-13T05:23:07.055Z,95197.29
2018-05-13T05:25:34.636Z,95205.11
2018-05-13T05:28:02.177Z,95197.61
2018-05-13T05:30:29.748Z,95197.30
2018-05-13T05:32:57.330Z,95192.17
2018-05-13T05:35:25.983Z,95196.05
2018-05-13T05:37:53.489Z,95200.02
2018-05-13T05:40:20.994Z,95211.09
2018-05-13T05:42:48.515Z,95196.83
2018-05-13T05:45:17.182Z,95197.76
2018-05-13T05:47:44.731Z,95208.30
2018-05-13T05:50:12.256Z,95212.94
2018-05-13T05:52:39.783Z,95204.32
2018-05-13T05:55:07.302Z,95209.28
2018-05-13T05:57:34.841Z,95210.49
2018-05-13T06:00:02.419Z,95204.63
2018-05-13T06:02:29.930Z,95196.55
2018-05-13T06:04:57.442Z,95204.63
2018-05-13T06:07:24.974Z,95195.40
2018-05-13T06:09:52.510Z,95199.81
2018-05-13T06:12:20.105Z,95160.56
2018-05-13T06:14:47.582Z,95205.00
2018-05-13T06:17:15.132Z,95205.03
2018-05-13T06:19:42.690Z,95202.69
2018-05-13T06:22:10.180Z,95194.53
2018-05-13T06:24:37.748Z,95196.38
2018-05-13T06:27:05.284Z,95194.97
2018-05-13T06:29:32.795Z,95182.89
2018-05-13T06:32:00.403Z,95178.03
2018-05-13T06:34:28.004Z,95188.81
2018-05-13T06:36:55.521Z,95194.95
2018-05-13T06:39:23.036Z,95189.73
2018-05-13T06:41:50.568Z,95187.38
2018-05-13T06:44:18.109Z,95188.50
2018-05-13T06:46:45.659Z,95186.01
2018-05-13T06:49:13.170Z,95187.81
2018-05-13T06:51:40.682Z,95188.94
2018-05-13T06:54:08.471Z,95187.62
2018-05-13T06:56:36.045Z,95189.41
2018-05-13T06:59:03.988Z,95187.27
2018-05-13T07:01:31.523Z,95183.61
2018-05-13T07:03:59.062Z,95187.48
2018-05-13T07:06:26.576Z,95183.92
2018-05-13T07:08:54.127Z,95178.73
2018-05-13T07:11:21.649Z,95183.67
2018-05-13T07:13:49.324Z,95175.81
2018-05-13T07:16:16.845Z,95173.64
2018-05-13T07:18:44.361Z,95175.23
2018-05-13T07:21:11.891Z,95172.39
2018-05-13T07:23:39.410Z,95170.45
2018-05-13T07:26:06.922Z,95171.51
2018-05-13T07:28:34.438Z,95162.02
2018-05-13T07:31:01.972Z,95169.81
2018-05-13T07:33:29.501Z,95164.45
2018-05-13T07:35:58.011Z,95156.32
2018-05-13T07:38:25.528Z,95153.02
2018-05-13T07:40:53.110Z,95151.86
2018-05-13T07:43:20.651Z,95142.55
2018-05-13T07:45:48.240Z,95143.58
2018-05-13T07:48:15.806Z,95143.54
2018-05-13T07:50:43.451Z,95146.06
2018-05-13T07:53:11.830Z,95144.73
2018-05-13T07:55:40.467Z,95140.93
2018-05-13T07:58:07.995Z,95137.53
2018-05-13T08:00:35.506Z,95126.66
2018-05-13T08:03:03.089Z,95119.02
2018-05-13T08:05:31.769Z,95122.17
2018-05-13T08:07:59.347Z,95123.02
2018-05-13T08:10:27.205Z,95117.84
2018-05-13T08:12:55.027Z,95113.56
2018-05-13T08:15:22.563Z,95113.27
2018-05-13T08:17:50.137Z,95122.80
2018-05-13T08:20:17.817Z,95106.73
2018-05-13T08:22:45.400Z,95110.67
2018-05-13T08:25:12.924Z,95109.05
2018-05-13T08:27:40.467Z,95105.83
2018-05-13T08:30:09.183Z,95100.92
2018-05-13T08:32:36.833Z,95099.63
2018-05-13T08:35:04.382Z,95091.42
2018-05-13T08:37:31.895Z,95085.80
2018-05-13T08:39:59.451Z,95084.46
2018-05-13T08:42:27.008Z,95078.94
2018-05-13T08:44:54.901Z,95077.06
2018-05-13T08:47:22.505Z,95076.28
2018-05-13T08:49:50.417Z,95072.16
2018-05-13T08:52:18.203Z,95069.30
2018-05-13T08:54:46.534Z,95030.06
2018-05-13T08:57:14.843Z,95064.69
2018-05-13T08:59:42.450Z,95063.13
2018-05-13T09:02:10.055Z,95069.37
2018-05-13T09:04:37.626Z,95073.55
2018-05-13T09:07:05.209Z,95062.89
2018-05-13T09:09:33.864Z,95052.17
2018-05-13T09:12:02.653Z,95058.45
2018-05-13T09:14:30.283Z,95063.28
2018-05-13T09:16:57.715Z,95062.59
2018-05-13T09:19:25.269Z,95060.01
2018-05-13T09:21:52.816Z,95060.14
2018-05-13T09:24:20.399Z,95057.29
2018-05-13T09:26:47.951Z,95058.41
2018-05-13T09:29:16.449Z,95055.23
2018-05-13T09:31:44.061Z,95045.52
2018-05-13T09:34:11.682Z,95049.91
2018-05-13T09:36:39.205Z,95049.89
2018-05-13T09:39:06.817Z,95051.89
2018-05-13T09:41:34.407Z,95029.83
2018-05-13T09:44:01.964Z,95037.28
2018-05-13T09:46:29.716Z,95026.67
2018-05-13T09:48:57.248Z,95031.95
2018-05-13T09:51:24.844Z,95035.39
2018-05-13T09:53:52.409Z,95031.62
2018-05-13T09:56:19.947Z,95025.52
2018-05-13T09:58:47.459Z,95016.27
2018-05-13T10:01:15.032Z,95019.41
2018-05-13T10:03:42.564Z,95021.33
2018-05-13T10:06:10.127Z,95021.02
2018-05-13T10:08:37.910Z,95014.85
2018-05-13T10:11:06.056Z,95006.58
2018-05-13T10:13:33.658Z,95001.86
2018-05-13T10:16:01.427Z,94994.38
2018-05-13T10:18:29.043Z,94995.68
2018-05-13T10:20:56.815Z,94989.56
2018-05-13T10:23:25.251Z,94978.64
2018-05-13T10:25:52.879Z,94974.15
2018-05-13T10:28:21.469Z,94976.10
2018-05-13T10:30:49.532Z,94969.94
2018-05-13T10:33:17.842Z,94965.06
2018-05-13T10:35:49.059Z,94963.67
2018-05-13T10:38:16.866Z,94961.84
2018-05-13T10:40:44.417Z,94952.22
2018-05-13T10:43:12.145Z,94942.02
2018-05-13T10:45:41.123Z,94942.05
2018-05-13T10:48:08.715Z,94934.41
2018-05-13T10:50:36.320Z,94934.24
2018-05-13T10:53:04.217Z,94942.63
2018-05-13T10:55:31.736Z,94954.57
2018-05-13T10:58:00.244Z,94956.65
2018-05-13T11:00:27.868Z,94956.09
2018-05-13T11:02:55.480Z,94949.45
2018-05-13T11:05:23.299Z,94949.55
2018-05-13T11:07:51.578Z,94948.85
2018-05-13T11:10:19.176Z,94942.98
2018-05-13T11:12:46.961Z,94950.36
2018-05-13T11:15:14.900Z,94955.42
2018-05-13T11:17:42.525Z,94947.38
2018-05-13T11:20:10.083Z,94945.92
2018-05-13T11:22:37.590Z,94942.23
2018-05-13T11:25:05.173Z,94932.37
2018-05-13T11:27:32.667Z,94928.22
2018-05-13T11:30:00.216Z,94929.52
2018-05-13T11:32:27.718Z,94920.09
2018-05-13T11:34:55.265Z,94896.97
2018-05-13T11:37:23.055Z,94910.39
2018-05-13T11:39:50.658Z,94935.63
2018-05-13T11:42:18.095Z,94933.94
2018-05-13T11:44:45.597Z,94946.73
2018-05-13T11:47:13.140Z,94955.55
2018-05-13T11:49:40.647Z,94977.66
2018-05-13T11:52:08.197Z,94990.94
2018-05-13T11:54:35.704Z,95014.09
2018-05-13T11:57:03.215Z,95028.74
2018-05-13T11:59:30.727Z,95007.63
2018-05-13T12:01:58.277Z,94957.75
2018-05-13T12:04:25.784Z,95002.89
2018-05-13T12:06:53.647Z,94997.56
2018-05-13T12:09:21.196Z,95009.52
2018-05-13T12:11:48.699Z,95007.16
2018-05-13T12:14:16.198Z,95011.27
2018-05-13T12:16:43.906Z,94995.45
2018-05-13T12:19:11.420Z,95030.00
2018-05-13T12:21:39.480Z,95036.06
2018-05-13T12:24:06.983Z,95031.58
2018-05-13T12:26:34.487Z,95020.64
2018-05-13T12:29:02.051Z,95018.88
2018-05-13T12:31:29.547Z,95022.89
2018-05-13T12:33:57.091Z,95013.91
2018-05-13T12:36:24.647Z,95007.64
2018-05-13T12:38:52.158Z,95007.02
2018-05-13T12:41:19.689Z,95002.08
2018-05-13T12:43:47.236Z,94980.36
2018-05-13T12:46:14.744Z,94980.98
2018-05-13T12:48:42.259Z,94984.47
2018-05-13T12:51:09.777Z,94977.48
2018-05-13T12:53:37.303Z,94962.06
2018-05-13T12:56:04.813Z,94956.55
2018-05-13T12:58:32.432Z,94951.20
2018-05-13T13:00:59.886Z,94946.48
2018-05-13T13:03:27.395Z,94932.02
2018-05-13T13:05:56.033Z,94931.66
2018-05-13T13:08:25.414Z,94935.92
2018-05-13T13:10:53.287Z,94936.70
2018-05-13T13:13:20.915Z,94935.52
2018-05-13T13:15:48.429Z,94941.61
2018-05-13T13:18:15.950Z,94943.97
2018-05-13T13:20:43.585Z,94928.44
2018-05-13T13:23:11.315Z,94926.42
2018-05-13T13:25:39.159Z,94929.33
2018-05-13T13:28:06.678Z,94928.64
2018-05-13T13:30:34.254Z,94918.79
2018-05-13T13:33:01.814Z,94905.70
2018-05-13T13:35:29.340Z,94896.30
2018-05-13T13:37:56.851Z,94891.95
2018-05-13T13:40:24.449Z,94896.17
2018-05-13T13:42:51.990Z,94888.02
2018-05-13T13:45:19.527Z,94891.27
2018-05-13T13:47:47.035Z,94894.75
2018-05-13T13:50:14.609Z,94900.00
2018-05-13T13:52:42.173Z,94899.83
2018-05-13T13:55:10.038Z,94902.00
2018-05-13T13:57:37.795Z,94900.83
2018-05-13T14:00:05.344Z,94907.77
2018-05-13T14:02:32.851Z,94911.88
2018-05-13T14:05:00.384Z,94909.00
2018-05-13T14:07:27.981Z,94886.41
2018-05-13T14:09:55.528Z,94910.41
2018-05-13T14:12:23.043Z,94915.05
2018-05-13T14:14:50.588Z,94916.79
2018-05-13T14:17:18.130Z,94914.75
2018-05-13T14:19:46.306Z,94919.67
2018-05-13T14:22:13.844Z,94917.31
2018-05-13T14:24:41.390Z,94924.25
2018-05-13T14:27:08.926Z,94914.76
2018-05-13T14:29:36.439Z,94912.04
2018-05-13T14:32:03.943Z,94912.98
2018-05-13T14:34:31.444Z,94905.32
2018-05-13T14:36:58.967Z,94908.02
2018-05-13T14:39:26.514Z,94906.10
2018-05-13T14:41:54.065Z,94905.49
2018-05-13T14:44:21.584Z,94899.66
2018-05-13T14:46:49.088Z,94893.45
2018-05-13T14:49:16.600Z,94903.02
2018-05-13T14:51:44.128Z,94894.32
2018-05-13T14:54:11.629Z,94888.66
2018-05-13T14:56:39.192Z,94887.49
2018-05-13T14:59:06.747Z,94883.81
2018-05-13T15:01:34.404Z,94890.45
2018-05-13T15:04:01.948Z,94885.34
2018-05-13T15:06:29.501Z,94884.03
2018-05-13T15:08:57.271Z,94884.84
2018-05-13T15:11:24.783Z,94901.73
2018-05-13T15:13:52.286Z,94893.58
2018-05-13T15:16:19.822Z,94886.18
2018-05-13T15:18:47.368Z,94884.89
2018-05-13T15:21:15.866Z,94887.25
2018-05-13T15:23:43.641Z,94875.01
2018-05-13T15:26:11.384Z,94888.78
2018-05-13T15:28:38.915Z,94897.88
2018-05-13T15:31:06.476Z,94891.88
2018-05-13T15:33:34.210Z,94904.45
2018-05-13T15:36:01.786Z,94896.55
2018-05-13T15:38:29.310Z,94904.25
2018-05-13T15:40:59.864Z,94912.00
2018-05-13T15:43:27.429Z,94916.69
2018-05-13T15:45:54.899Z,94917.65
2018-05-13T15:48:22.437Z,94904.09
2018-05-13T15:50:50.027Z,94911.25
2018-05-13T15:53:17.611Z,94909.94
2018-05-13T15:55:45.167Z,94901.55
2018-05-13T15:58:12.724Z,94909.48
2018-05-13T16:00:40.975Z,94917.56
2018-05-13T16:03:08.476Z,94922.45
2018-05-13T16:05:36.693Z,94921.53
2018-05-13T16:08:05.039Z,94917.23
2018-05-13T16:10:32.534Z,94909.28
2018-05-13T16:13:00.045Z,94911.63
2018-05-13T16:15:27.583Z,94922.75
2018-05-13T16:17:55.135Z,94931.37
2018-05-13T16:20:22.649Z,94920.36
2018-05-13T16:22:50.163Z,94925.98
2018-05-13T16:25:18.607Z,94932.41
2018-05-13T16:27:46.195Z,94944.88
2018-05-13T16:30:13.789Z,94948.34
2018-05-13T16:32:41.361Z,94942.16
2018-05-13T16:35:08.911Z,94947.47
2018-05-13T16:37:36.419Z,94942.58
2018-05-13T16:40:03.985Z,94941.44
2018-05-13T16:42:31.541Z,94940.67
2018-05-13T16:44:59.119Z,94942.34
2018-05-13T16:47:26.698Z,94948.41
2018-05-13T16:49:54.230Z,94950.91
2018-05-13T16:52:21.936Z,94941.59
2018-05-13T16:54:49.500Z,94947.68
2018-05-13T16:57:17.052Z,94955.19
2018-05-13T16:59:44.589Z,94959.34
2018-05-13T17:02:12.100Z,94960.16
2018-05-13T17:04:39.609Z,94972.30
2018-05-13T17:07:07.108Z,94955.34
2018-05-13T17:09:34.672Z,94953.84
2018-05-13T17:12:02.200Z,94962.44
2018-05-13T17:14:29.728Z,94953.82
2018-05-13T17:16:57.237Z,94966.52
2018-05-13T17:19:24.744Z,94975.16
2018-05-13T17:21:52.289Z,94981.02
2018-05-13T17:24:19.808Z,94977.89
2018-05-13T17:26:47.308Z,94992.54
2018-05-13T17:29:14.842Z,95006.58
2018-05-13T17:31:42.356Z,95004.03
2018-05-13T17:34:09.905Z,95012.63
2018-05-13T17:36:37.385Z,95006.19
2018-05-13T17:39:04.942Z,94999.95
2018-05-13T17:41:32.459Z,95007.93
2018-05-13T17:44:00.012Z,95001.51
2018-05-13T17:46:27.596Z,94996.83
2018-05-13T17:48:55.177Z,94999.17
2018-05-13T17:51:22.732Z,95007.67
2018-05-13T17:53:50.243Z,94997.36
2018-05-13T17:56:17.805Z,94993.84
2018-05-13T17:58:45.392Z,94996.39
2018-05-13T18:01:12.956Z,94994.44
2018-05-13T18:03:40.552Z,94990.77
2018-05-13T18:06:08.275Z,94995.27
2018-05-13T18:08:35.828Z,94994.23
2018-05-13T18:11:04.298Z,95004.75
2018-05-13T18:13:31.855Z,95006.36
2018-05-13T18:15:59.823Z,95012.64
2018-05-13T18:18:27.324Z,95014.98
2018-05-13T18:20:54.849Z,95022.59
2018-05-13T18:23:22.484Z,95022.02
2018-05-13T18:25:49.935Z,95013.79
2018-05-13T18:28:17.487Z,95015.49
2018-05-13T18:30:45.073Z,95005.51
2018-05-13T18:33:12.654Z,95014.02
2018-05-13T18:35:41.120Z,95013.39
2018-05-13T18:38:08.666Z,95017.17
2018-05-13T18:40:36.192Z,95012.37
2018-05-13T18:43:03.700Z,95015.70
2018-05-13T18:45:31.364Z,95011.66
2018-05-13T18:47:58.871Z,95018.78
2018-05-13T18:50:26.420Z,95020.14
2018-05-13T18:52:53.961Z,95020.42
2018-05-13T18:55:21.499Z,95014.53
2018-05-13T18:57:49.031Z,95009.87
2018-05-13T19:00:16.526Z,95008.74
2018-05-13T19:02:44.043Z,94997.02
2018-05-13T19:05:12.354Z,95000.19
2018-05-13T19:07:39.851Z,95003.91
2018-05-13T19:10:07.379Z,94992.55
2018-05-13T19:12:34.940Z,94979.98
2018-05-13T19:15:02.732Z,94977.26
2018-05-13T19:17:30.240Z,94976.27
2018-05-13T19:19:57.785Z,94979.68
2018-05-13T19:22:25.298Z,94986.68
2018-05-13T19:24:53.378Z,94979.83
2018-05-13T19:27:21.174Z,94981.02
2018-05-13T19:29:48.723Z,94983.41
2018-05-13T19:32:16.223Z,94986.68
2018-05-13T19:34:43.751Z,94992.34
2018-05-13T19:37:11.327Z,94987.29
2018-05-13T19:39:38.882Z,94989.16
2018-05-13T19:42:06.417Z,94988.36
2018-05-13T19:44:33.927Z,94988.77
2018-05-13T19:47:01.433Z,94994.75
2018-05-13T19:49:28.946Z,94986.17
2018-05-13T19:51:56.539Z,94990.83
2018-05-13T19:54:24.071Z,94985.37
2018-05-13T19:56:51.615Z,94989.07
2018-05-13T19:59:19.123Z,94983.94
2018-05-13T20:01:46.627Z,94990.80
2018-05-13T20:06:47.831Z,94993.09
2018-05-13T20:09:15.443Z,94993.38
2018-05-13T20:11:42.900Z,95004.47
2018-05-13T20:14:10.399Z,95011.23
2018-05-13T20:16:37.900Z,95004.46
2018-05-13T20:19:05.405Z,94998.04
2018-05-13T20:21:32.994Z,94994.13
2018-05-13T20:24:00.499Z,94989.52
2018-05-13T20:26:28.040Z,94986.09
2018-05-13T20:28:55.545Z,94981.66
2018-05-13T20:31:23.083Z,94978.17
2018-05-13T20:33:50.577Z,94991.63
2018-05-13T20:36:18.076Z,94990.66
2018-05-13T20:38:45.630Z,94990.88
2018-05-13T20:41:13.189Z,94990.36
2018-05-13T20:43:40.702Z,94987.77
2018-05-13T20:46:08.216Z,94991.05
2018-05-13T20:48:35.711Z,94986.30
2018-05-13T20:51:03.277Z,94983.80
2018-05-13T20:53:30.805Z,94975.05
2018-05-13T20:55:58.340Z,94972.73
2018-05-13T20:58:25.886Z,94990.83
2018-05-13T21:00:53.429Z,94985.67
2018-05-13T21:03:20.953Z,94990.09
2018-05-13T21:05:48.468Z,94990.00
2018-05-13T21:08:16.505Z,94987.20
2018-05-13T21:10:44.118Z,94984.78
2018-05-13T21:13:11.684Z,94983.02
2018-05-13T21:15:39.227Z,94990.33
2018-05-13T21:18:06.778Z,94990.17
2018-05-13T21:20:34.317Z,94993.68
2018-05-13T21:23:01.848Z,94984.50
2018-05-13T21:25:29.386Z,95000.03
2018-05-13T21:27:56.945Z,95001.72
2018-05-13T21:30:24.502Z,95000.72
2018-05-13T21:32:52.311Z,95008.03
2018-05-13T21:35:19.847Z,95008.55
2018-05-13T21:37:47.375Z,95007.54
2018-05-13T21:40:14.903Z,95017.13
2018-05-13T21:42:42.437Z,95018.80
2018-05-13T21:45:09.963Z,95016.78
2018-05-13T21:47:37.480Z,95019.05
2018-05-13T21:50:05.026Z,95000.63
2018-05-13T21:52:32.573Z,95010.64
2018-05-13T21:55:00.109Z,95017.86
2018-05-13T21:57:27.645Z,95012.59
2018-05-13T21:59:55.193Z,95021.09
2018-05-13T22:02:22.716Z,95030.47
2018-05-13T22:04:59.235Z,95025.45
2018-05-13T22:07:26.754Z,95026.95
2018-05-13T22:09:54.274Z,95031.73
2018-05-13T22:12:21.803Z,95029.45
2018-05-13T22:14:49.349Z,95036.12
2018-05-13T22:17:16.937Z,95038.17
2018-05-13T22:19:44.435Z,95037.03
2018-05-13T22:22:11.974Z,95045.53
2018-05-13T22:24:39.505Z,95042.25
2018-05-13T22:27:07.027Z,95040.19
2018-05-13T22:29:34.573Z,95039.31
2018-05-13T22:32:02.092Z,95039.63
2018-05-13T22:34:29.626Z,95045.27
2018-05-13T22:36:57.150Z,95045.66
2018-05-13T22:39:24.672Z,95046.40
2018-05-13T22:41:52.198Z,95036.14
2018-05-13T22:44:19.712Z,95034.16
2018-05-13T22:46:47.230Z,95047.08
2018-05-13T22:49:14.755Z,95031.41
2018-05-13T22:51:42.914Z,95037.24
2018-05-13T22:54:10.479Z,95027.16
2018-05-13T22:56:38.005Z,95044.70
2018-05-13T22:59:05.582Z,95036.68
2018-05-13T23:01:33.110Z,95025.23
2018-05-13T23:04:00.639Z,95019.95
2018-05-13T23:06:30.953Z,95014.47
2018-05-13T23:08:58.485Z,95019.50
2018-05-13T23:11:26.012Z,95010.45
2018-05-13T23:13:53.536Z,95013.45
2018-05-13T23:16:21.067Z,95009.43
2018-05-13T23:18:48.591Z,94999.61
2018-05-13T23:21:16.151Z,95013.06
2018-05-13T23:23:43.691Z,95011.53
2018-05-13T23:26:11.225Z,95011.29
2018-05-13T23:28:38.853Z,94995.94
2018-05-13T23:31:06.315Z,95010.61
2018-05-13T23:33:33.837Z,95005.98
2018-05-13T23:36:01.386Z,95009.66
2018-05-13T23:38:28.917Z,95011.14
2018-05-13T23:40:56.445Z,95009.27
2018-05-13T23:43:24.028Z,95006.22
2018-05-13T23:45:51.539Z,95004.69
2018-05-13T23:48:19.067Z,95002.45
2018-05-13T23:50:46.599Z,95005.00
2018-05-13T23:53:14.135Z,95002.09
2018-05-13T23:55:41.662Z,94997.77
2018-05-13T23:58:09.196Z,95008.11
